sensor_id;sensor_type;location;lat;lon;timestamp;temperature;humidity
28247;DHT22;34504;53.178;22.058;2022-12-07T00:01:46;2.70;99.90
28247;DHT22;34504;53.178;22.058;2022-12-07T00:04:16;2.70;99.90
28247;DHT22;34504;53.178;22.058;2022-12-07T00:06:47;2.70;99.90
28247;DHT22;34504;53.178;22.058;2022-12-07T00:09:18;2.70;99.90
28247;DHT22;34504;53.178;22.058;2022-12-07T00:11:50;2.70;99.90
28247;DHT22;34504;53.178;22.058;2022-12-07T00:14:18;2.70;99.90
28247;DHT22;34504;53.178;22.058;2022-12-07T00:16:49;2.70;99.90
28247;DHT22;34504;53.178;22.058;2022-12-07T00:19:18;2.70;99.90
28247;DHT22;34504;53.178;22.058;2022-12-07T00:21:49;2.70;99.90
28247;DHT22;34504;53.178;22.058;2022-12-07T00:24:17;2.70;99.90
28247;DHT22;34504;53.178;22.058;2022-12-07T00:26:45;2.70;99.90
28247;DHT22;34504;53.178;22.058;2022-12-07T00:29:19;2.70;99.90
28247;DHT22;34504;53.178;22.058;2022-12-07T00:31:47;2.70;99.90
28247;DHT22;34504;53.178;22.058;2022-12-07T00:34:20;2.70;99.90
28247;DHT22;34504;53.178;22.058;2022-12-07T00:36:49;2.70;99.90
28247;DHT22;34504;53.178;22.058;2022-12-07T00:39:17;2.70;99.90
28247;DHT22;34504;53.178;22.058;2022-12-07T00:41:45;2.70;99.90
28247;DHT22;34504;53.178;22.058;2022-12-07T00:44:14;2.70;99.90
28247;DHT22;34504;53.178;22.058;2022-12-07T00:46:42;2.70;99.90
28247;DHT22;34504;53.178;22.058;2022-12-07T00:49:12;2.70;99.90
28247;DHT22;34504;53.178;22.058;2022-12-07T00:51:40;2.70;99.90
28247;DHT22;34504;53.178;22.058;2022-12-07T00:54:08;2.70;99.90
28247;DHT22;34504;53.178;22.058;2022-12-07T00:56:36;2.70;99.90
28247;DHT22;34504;53.178;22.058;2022-12-07T00:59:04;2.70;99.90
28247;DHT22;34504;53.178;22.058;2022-12-07T01:01:34;2.70;99.90
28247;DHT22;34504;53.178;22.058;2022-12-07T01:04:03;2.70;99.90
28247;DHT22;34504;53.178;22.058;2022-12-07T01:06:31;2.70;99.90
28247;DHT22;34504;53.178;22.058;2022-12-07T01:09:00;2.60;99.90
28247;DHT22;34504;53.178;22.058;2022-12-07T01:11:34;2.70;99.90
28247;DHT22;34504;53.178;22.058;2022-12-07T01:14:02;2.70;99.90
28247;DHT22;34504;53.178;22.058;2022-12-07T01:16:32;2.70;99.90
28247;DHT22;34504;53.178;22.058;2022-12-07T01:19:01;2.70;99.90
28247;DHT22;34504;53.178;22.058;2022-12-07T01:21:34;2.60;99.90
28247;DHT22;34504;53.178;22.058;2022-12-07T01:24:05;2.60;99.90
28247;DHT22;34504;53.178;22.058;2022-12-07T01:26:34;2.70;99.90
28247;DHT22;34504;53.178;22.058;2022-12-07T01:29:02;2.70;99.90
28247;DHT22;34504;53.178;22.058;2022-12-07T01:31:30;2.70;99.90
28247;DHT22;34504;53.178;22.058;2022-12-07T01:33:59;2.70;99.90
28247;DHT22;34504;53.178;22.058;2022-12-07T01:36:33;2.70;99.90
28247;DHT22;34504;53.178;22.058;2022-12-07T01:39:06;2.70;99.90
28247;DHT22;34504;53.178;22.058;2022-12-07T01:41:50;2.70;99.90
28247;DHT22;34504;53.178;22.058;2022-12-07T01:44:23;2.60;99.90
28247;DHT22;34504;53.178;22.058;2022-12-07T01:46:56;2.60;99.90
28247;DHT22;34504;53.178;22.058;2022-12-07T01:49:39;2.60;99.90
28247;DHT22;34504;53.178;22.058;2022-12-07T01:52:30;2.60;99.90
28247;DHT22;34504;53.178;22.058;2022-12-07T01:55:01;2.60;99.90
28247;DHT22;34504;53.178;22.058;2022-12-07T01:57:31;2.60;99.90
28247;DHT22;34504;53.178;22.058;2022-12-07T02:00:00;2.60;99.90
28247;DHT22;34504;53.178;22.058;2022-12-07T02:02:55;2.60;99.90
28247;DHT22;34504;53.178;22.058;2022-12-07T02:05:25;2.60;99.90
28247;DHT22;34504;53.178;22.058;2022-12-07T02:07:55;2.60;99.90
28247;DHT22;34504;53.178;22.058;2022-12-07T02:10:27;2.60;99.90
28247;DHT22;34504;53.178;22.058;2022-12-07T02:18:55;2.60;99.90
28247;DHT22;34504;53.178;22.058;2022-12-07T02:22:18;2.60;99.90
28247;DHT22;34504;53.178;22.058;2022-12-07T02:27:50;2.70;99.90
28247;DHT22;34504;53.178;22.058;2022-12-07T02:30:22;2.70;99.90
28247;DHT22;34504;53.178;22.058;2022-12-07T02:33:16;2.70;99.90
28247;DHT22;34504;53.178;22.058;2022-12-07T02:39:11;2.70;99.90
28247;DHT22;34504;53.178;22.058;2022-12-07T02:41:52;2.80;99.90
28247;DHT22;34504;53.178;22.058;2022-12-07T02:44:26;2.70;99.90
28247;DHT22;34504;53.178;22.058;2022-12-07T02:46:59;2.80;99.90
28247;DHT22;34504;53.178;22.058;2022-12-07T02:49:30;2.80;99.90
28247;DHT22;34504;53.178;22.058;2022-12-07T02:51:59;2.80;99.90
28247;DHT22;34504;53.178;22.058;2022-12-07T02:54:27;2.80;99.90
28247;DHT22;34504;53.178;22.058;2022-12-07T03:00:08;2.80;99.90
28247;DHT22;34504;53.178;22.058;2022-12-07T03:05:28;2.80;99.90
28247;DHT22;34504;53.178;22.058;2022-12-07T03:11:20;2.80;99.90
28247;DHT22;34504;53.178;22.058;2022-12-07T03:14:11;2.80;99.90
28247;DHT22;34504;53.178;22.058;2022-12-07T03:17:10;2.80;99.90
28247;DHT22;34504;53.178;22.058;2022-12-07T03:19:41;2.80;99.90
28247;DHT22;34504;53.178;22.058;2022-12-07T03:22:13;2.80;99.90
28247;DHT22;34504;53.178;22.058;2022-12-07T03:24:56;2.80;99.90
28247;DHT22;34504;53.178;22.058;2022-12-07T03:27:29;2.80;99.90
28247;DHT22;34504;53.178;22.058;2022-12-07T03:30:03;2.80;99.90
28247;DHT22;34504;53.178;22.058;2022-12-07T03:32:34;2.80;99.90
28247;DHT22;34504;53.178;22.058;2022-12-07T03:38:02;2.80;99.90
28247;DHT22;34504;53.178;22.058;2022-12-07T03:40:37;2.80;99.90
28247;DHT22;34504;53.178;22.058;2022-12-07T03:43:07;2.80;99.90
28247;DHT22;34504;53.178;22.058;2022-12-07T03:45:42;2.80;99.90
28247;DHT22;34504;53.178;22.058;2022-12-07T03:50:48;2.80;99.90
28247;DHT22;34504;53.178;22.058;2022-12-07T03:53:22;2.80;99.90
28247;DHT22;34504;53.178;22.058;2022-12-07T03:55:52;2.80;99.90
28247;DHT22;34504;53.178;22.058;2022-12-07T03:58:23;2.80;99.90
28247;DHT22;34504;53.178;22.058;2022-12-07T04:00:52;2.90;99.90
28247;DHT22;34504;53.178;22.058;2022-12-07T04:03:20;2.90;99.90
28247;DHT22;34504;53.178;22.058;2022-12-07T04:05:48;2.90;99.90
28247;DHT22;34504;53.178;22.058;2022-12-07T04:08:17;2.90;99.90
28247;DHT22;34504;53.178;22.058;2022-12-07T04:10:45;2.90;99.90
28247;DHT22;34504;53.178;22.058;2022-12-07T04:13:13;2.90;99.90
28247;DHT22;34504;53.178;22.058;2022-12-07T04:15:41;2.90;99.90
28247;DHT22;34504;53.178;22.058;2022-12-07T04:18:09;2.90;99.90
28247;DHT22;34504;53.178;22.058;2022-12-07T04:20:37;2.90;99.90
28247;DHT22;34504;53.178;22.058;2022-12-07T04:23:05;2.90;99.90
28247;DHT22;34504;53.178;22.058;2022-12-07T04:25:33;2.80;99.90
28247;DHT22;34504;53.178;22.058;2022-12-07T04:28:01;2.90;99.90
28247;DHT22;34504;53.178;22.058;2022-12-07T04:30:29;2.90;99.90
28247;DHT22;34504;53.178;22.058;2022-12-07T04:32:57;2.90;99.90
28247;DHT22;34504;53.178;22.058;2022-12-07T04:35:25;2.80;99.90
28247;DHT22;34504;53.178;22.058;2022-12-07T04:37:56;2.90;99.90
28247;DHT22;34504;53.178;22.058;2022-12-07T04:40:44;2.80;99.90
28247;DHT22;34504;53.178;22.058;2022-12-07T04:43:13;2.90;99.90
28247;DHT22;34504;53.178;22.058;2022-12-07T04:45:46;2.80;99.90
28247;DHT22;34504;53.178;22.058;2022-12-07T04:48:15;2.90;99.90
28247;DHT22;34504;53.178;22.058;2022-12-07T04:50:43;2.90;99.90
28247;DHT22;34504;53.178;22.058;2022-12-07T04:53:13;2.90;99.90
28247;DHT22;34504;53.178;22.058;2022-12-07T04:55:41;2.80;99.90
28247;DHT22;34504;53.178;22.058;2022-12-07T04:58:09;2.80;99.90
28247;DHT22;34504;53.178;22.058;2022-12-07T05:00:37;2.90;99.90
28247;DHT22;34504;53.178;22.058;2022-12-07T05:03:05;2.90;99.90
28247;DHT22;34504;53.178;22.058;2022-12-07T05:05:33;2.90;99.90
28247;DHT22;34504;53.178;22.058;2022-12-07T05:08:02;2.90;99.90
28247;DHT22;34504;53.178;22.058;2022-12-07T05:10:29;2.90;99.90
28247;DHT22;34504;53.178;22.058;2022-12-07T05:12:58;2.90;99.90
28247;DHT22;34504;53.178;22.058;2022-12-07T05:15:26;2.90;99.90
28247;DHT22;34504;53.178;22.058;2022-12-07T05:18:10;2.90;99.90
28247;DHT22;34504;53.178;22.058;2022-12-07T05:20:54;2.90;99.90
28247;DHT22;34504;53.178;22.058;2022-12-07T05:23:23;2.90;99.90
28247;DHT22;34504;53.178;22.058;2022-12-07T05:25:51;2.90;99.90
28247;DHT22;34504;53.178;22.058;2022-12-07T05:28:19;2.90;99.90
28247;DHT22;34504;53.178;22.058;2022-12-07T05:30:47;2.90;99.90
28247;DHT22;34504;53.178;22.058;2022-12-07T05:33:15;3.00;99.90
28247;DHT22;34504;53.178;22.058;2022-12-07T05:35:43;2.90;99.90
28247;DHT22;34504;53.178;22.058;2022-12-07T05:38:11;2.90;99.90
28247;DHT22;34504;53.178;22.058;2022-12-07T05:40:39;2.90;99.90
28247;DHT22;34504;53.178;22.058;2022-12-07T05:43:07;2.90;99.90
28247;DHT22;34504;53.178;22.058;2022-12-07T05:45:35;2.90;99.90
28247;DHT22;34504;53.178;22.058;2022-12-07T05:48:03;2.90;99.90
28247;DHT22;34504;53.178;22.058;2022-12-07T05:50:31;2.90;99.90
28247;DHT22;34504;53.178;22.058;2022-12-07T05:53:02;2.90;99.90
28247;DHT22;34504;53.178;22.058;2022-12-07T05:55:30;2.90;99.90
28247;DHT22;34504;53.178;22.058;2022-12-07T05:57:58;2.90;99.90
28247;DHT22;34504;53.178;22.058;2022-12-07T06:00:45;2.90;99.90
28247;DHT22;34504;53.178;22.058;2022-12-07T06:03:18;2.90;99.90
28247;DHT22;34504;53.178;22.058;2022-12-07T06:05:46;2.90;99.90
28247;DHT22;34504;53.178;22.058;2022-12-07T06:08:14;2.90;99.90
28247;DHT22;34504;53.178;22.058;2022-12-07T06:10:42;2.90;99.90
28247;DHT22;34504;53.178;22.058;2022-12-07T06:13:11;2.90;99.90
28247;DHT22;34504;53.178;22.058;2022-12-07T06:15:41;2.90;99.90
28247;DHT22;34504;53.178;22.058;2022-12-07T06:18:10;2.90;99.90
28247;DHT22;34504;53.178;22.058;2022-12-07T06:20:38;2.90;99.90
28247;DHT22;34504;53.178;22.058;2022-12-07T06:23:06;2.90;99.90
28247;DHT22;34504;53.178;22.058;2022-12-07T06:25:34;2.90;99.90
28247;DHT22;34504;53.178;22.058;2022-12-07T06:28:02;2.90;99.90
28247;DHT22;34504;53.178;22.058;2022-12-07T06:30:30;2.90;99.90
28247;DHT22;34504;53.178;22.058;2022-12-07T06:32:58;2.90;99.90
28247;DHT22;34504;53.178;22.058;2022-12-07T06:35:26;2.90;99.90
28247;DHT22;34504;53.178;22.058;2022-12-07T06:37:54;2.90;99.90
28247;DHT22;34504;53.178;22.058;2022-12-07T06:40:22;2.90;99.90
28247;DHT22;34504;53.178;22.058;2022-12-07T06:42:50;2.90;99.90
28247;DHT22;34504;53.178;22.058;2022-12-07T06:45:18;2.90;99.90
28247;DHT22;34504;53.178;22.058;2022-12-07T06:47:46;2.90;99.90
28247;DHT22;34504;53.178;22.058;2022-12-07T06:50:15;2.90;99.90
28247;DHT22;34504;53.178;22.058;2022-12-07T06:52:43;2.90;99.90
28247;DHT22;34504;53.178;22.058;2022-12-07T06:55:10;3.00;99.90
28247;DHT22;34504;53.178;22.058;2022-12-07T06:57:39;2.90;99.90
28247;DHT22;34504;53.178;22.058;2022-12-07T07:00:07;3.00;99.90
28247;DHT22;34504;53.178;22.058;2022-12-07T07:02:36;3.00;99.90
28247;DHT22;34504;53.178;22.058;2022-12-07T07:05:04;3.00;99.90
28247;DHT22;34504;53.178;22.058;2022-12-07T07:07:32;3.00;99.90
28247;DHT22;34504;53.178;22.058;2022-12-07T07:10:20;2.90;99.90
28247;DHT22;34504;53.178;22.058;2022-12-07T07:12:48;3.00;99.90
28247;DHT22;34504;53.178;22.058;2022-12-07T07:15:24;3.00;99.90
28247;DHT22;34504;53.178;22.058;2022-12-07T07:17:53;3.00;99.90
28247;DHT22;34504;53.178;22.058;2022-12-07T07:20:21;3.00;99.90
28247;DHT22;34504;53.178;22.058;2022-12-07T07:22:50;3.00;99.90
28247;DHT22;34504;53.178;22.058;2022-12-07T07:25:18;3.00;99.90
28247;DHT22;34504;53.178;22.058;2022-12-07T07:27:47;3.00;99.90
28247;DHT22;34504;53.178;22.058;2022-12-07T07:30:15;3.00;99.90
28247;DHT22;34504;53.178;22.058;2022-12-07T07:32:43;3.00;99.90
28247;DHT22;34504;53.178;22.058;2022-12-07T07:35:11;3.00;99.90
28247;DHT22;34504;53.178;22.058;2022-12-07T07:37:42;3.00;99.90
28247;DHT22;34504;53.178;22.058;2022-12-07T07:40:10;3.00;99.90
28247;DHT22;34504;53.178;22.058;2022-12-07T07:42:47;3.00;99.90
28247;DHT22;34504;53.178;22.058;2022-12-07T07:45:16;3.10;99.90
28247;DHT22;34504;53.178;22.058;2022-12-07T07:47:45;3.00;99.90
28247;DHT22;34504;53.178;22.058;2022-12-07T07:50:16;3.00;99.90
28247;DHT22;34504;53.178;22.058;2022-12-07T07:52:46;3.00;99.90
28247;DHT22;34504;53.178;22.058;2022-12-07T07:55:15;3.00;99.90
28247;DHT22;34504;53.178;22.058;2022-12-07T07:57:44;3.10;99.90
28247;DHT22;34504;53.178;22.058;2022-12-07T08:00:21;3.00;99.90
28247;DHT22;34504;53.178;22.058;2022-12-07T08:02:49;3.00;99.90
28247;DHT22;34504;53.178;22.058;2022-12-07T08:05:17;3.10;99.90
28247;DHT22;34504;53.178;22.058;2022-12-07T08:07:46;3.10;99.90
28247;DHT22;34504;53.178;22.058;2022-12-07T08:10:14;3.10;99.90
28247;DHT22;34504;53.178;22.058;2022-12-07T08:12:43;3.10;99.90
28247;DHT22;34504;53.178;22.058;2022-12-07T08:15:30;3.10;99.90
28247;DHT22;34504;53.178;22.058;2022-12-07T08:17:59;3.10;99.90
28247;DHT22;34504;53.178;22.058;2022-12-07T08:20:30;3.10;99.90
28247;DHT22;34504;53.178;22.058;2022-12-07T08:23:20;3.10;99.90
28247;DHT22;34504;53.178;22.058;2022-12-07T08:26:04;3.10;99.90
28247;DHT22;34504;53.178;22.058;2022-12-07T08:28:33;3.20;99.90
28247;DHT22;34504;53.178;22.058;2022-12-07T08:31:02;3.10;99.90
28247;DHT22;34504;53.178;22.058;2022-12-07T08:33:31;3.10;99.90
28247;DHT22;34504;53.178;22.058;2022-12-07T08:36:04;3.10;99.90
28247;DHT22;34504;53.178;22.058;2022-12-07T08:38:37;3.10;99.90
28247;DHT22;34504;53.178;22.058;2022-12-07T08:41:07;3.20;99.90
28247;DHT22;34504;53.178;22.058;2022-12-07T08:43:38;3.10;99.90
28247;DHT22;34504;53.178;22.058;2022-12-07T08:49:01;3.20;99.90
28247;DHT22;34504;53.178;22.058;2022-12-07T08:51:29;3.20;99.90
28247;DHT22;34504;53.178;22.058;2022-12-07T08:54:00;3.20;99.90
28247;DHT22;34504;53.178;22.058;2022-12-07T08:56:28;3.20;99.90
28247;DHT22;34504;53.178;22.058;2022-12-07T08:58:57;3.20;99.90
28247;DHT22;34504;53.178;22.058;2022-12-07T09:01:25;3.20;99.90
28247;DHT22;34504;53.178;22.058;2022-12-07T09:03:55;3.20;99.90
28247;DHT22;34504;53.178;22.058;2022-12-07T09:06:22;3.20;99.90
28247;DHT22;34504;53.178;22.058;2022-12-07T09:08:54;3.20;99.90
28247;DHT22;34504;53.178;22.058;2022-12-07T09:11:29;3.20;99.90
28247;DHT22;34504;53.178;22.058;2022-12-07T09:13:58;3.30;99.90
28247;DHT22;34504;53.178;22.058;2022-12-07T09:16:26;3.20;99.90
28247;DHT22;34504;53.178;22.058;2022-12-07T09:18:54;3.20;99.90
28247;DHT22;34504;53.178;22.058;2022-12-07T09:21:22;3.20;99.90
28247;DHT22;34504;53.178;22.058;2022-12-07T09:23:50;3.30;99.90
28247;DHT22;34504;53.178;22.058;2022-12-07T09:26:18;3.30;99.90
28247;DHT22;34504;53.178;22.058;2022-12-07T09:28:46;3.30;99.90
28247;DHT22;34504;53.178;22.058;2022-12-07T09:31:14;3.30;99.90
28247;DHT22;34504;53.178;22.058;2022-12-07T09:33:56;3.30;99.90
28247;DHT22;34504;53.178;22.058;2022-12-07T09:36:25;3.30;99.90
28247;DHT22;34504;53.178;22.058;2022-12-07T09:38:54;3.30;99.90
28247;DHT22;34504;53.178;22.058;2022-12-07T09:41:23;3.30;99.90
28247;DHT22;34504;53.178;22.058;2022-12-07T09:44:03;3.30;99.90
28247;DHT22;34504;53.178;22.058;2022-12-07T09:46:36;3.30;99.90
28247;DHT22;34504;53.178;22.058;2022-12-07T09:49:16;3.40;99.90
28247;DHT22;34504;53.178;22.058;2022-12-07T09:51:46;3.30;99.90
28247;DHT22;34504;53.178;22.058;2022-12-07T09:54:16;3.40;99.90
28247;DHT22;34504;53.178;22.058;2022-12-07T09:56:44;3.40;99.90
28247;DHT22;34504;53.178;22.058;2022-12-07T09:59:17;3.40;99.90
28247;DHT22;34504;53.178;22.058;2022-12-07T10:01:49;3.30;99.90
28247;DHT22;34504;53.178;22.058;2022-12-07T10:04:24;3.30;99.90
28247;DHT22;34504;53.178;22.058;2022-12-07T10:06:53;3.40;99.90
28247;DHT22;34504;53.178;22.058;2022-12-07T10:09:21;3.30;99.90
28247;DHT22;34504;53.178;22.058;2022-12-07T10:12:10;3.40;99.90
28247;DHT22;34504;53.178;22.058;2022-12-07T10:14:53;3.30;99.90
28247;DHT22;34504;53.178;22.058;2022-12-07T10:17:41;3.30;99.90
28247;DHT22;34504;53.178;22.058;2022-12-07T10:20:25;3.40;99.90
28247;DHT22;34504;53.178;22.058;2022-12-07T10:23:02;3.40;99.90
28247;DHT22;34504;53.178;22.058;2022-12-07T10:25:35;3.40;99.90
28247;DHT22;34504;53.178;22.058;2022-12-07T10:28:27;3.40;99.90
28247;DHT22;34504;53.178;22.058;2022-12-07T10:31:17;3.40;99.90
28247;DHT22;34504;53.178;22.058;2022-12-07T10:33:56;3.40;99.90
28247;DHT22;34504;53.178;22.058;2022-12-07T10:39:00;3.40;99.90
28247;DHT22;34504;53.178;22.058;2022-12-07T10:41:30;3.40;99.90
28247;DHT22;34504;53.178;22.058;2022-12-07T10:43:58;3.40;99.90
28247;DHT22;34504;53.178;22.058;2022-12-07T10:54:47;3.40;99.90
28247;DHT22;34504;53.178;22.058;2022-12-07T10:57:20;3.40;99.90
28247;DHT22;34504;53.178;22.058;2022-12-07T11:00:04;3.40;99.90
28247;DHT22;34504;53.178;22.058;2022-12-07T11:10:53;3.40;99.90
28247;DHT22;34504;53.178;22.058;2022-12-07T11:13:36;3.40;99.90
28247;DHT22;34504;53.178;22.058;2022-12-07T11:21:58;3.40;99.90
28247;DHT22;34504;53.178;22.058;2022-12-07T11:30:35;3.40;99.90
28247;DHT22;34504;53.178;22.058;2022-12-07T11:41:03;3.40;99.90
28247;DHT22;34504;53.178;22.058;2022-12-07T11:43:58;3.40;99.90
28247;DHT22;34504;53.178;22.058;2022-12-07T11:49:23;3.40;99.90
28247;DHT22;34504;53.178;22.058;2022-12-07T11:51:57;3.40;99.90
28247;DHT22;34504;53.178;22.058;2022-12-07T11:54:30;3.40;99.90
28247;DHT22;34504;53.178;22.058;2022-12-07T11:57:04;3.40;99.90
28247;DHT22;34504;53.178;22.058;2022-12-07T11:59:40;3.30;99.90
28247;DHT22;34504;53.178;22.058;2022-12-07T12:02:16;3.30;99.90
28247;DHT22;34504;53.178;22.058;2022-12-07T12:05:21;3.30;99.90
28247;DHT22;34504;53.178;22.058;2022-12-07T12:11:13;3.30;99.90
28247;DHT22;34504;53.178;22.058;2022-12-07T12:22:06;3.30;99.90
28247;DHT22;34504;53.178;22.058;2022-12-07T12:24:38;3.30;99.90
28247;DHT22;34504;53.178;22.058;2022-12-07T12:27:39;3.20;99.90
28247;DHT22;34504;53.178;22.058;2022-12-07T12:30:29;3.20;99.90
28247;DHT22;34504;53.178;22.058;2022-12-07T12:33:06;3.20;99.90
28247;DHT22;34504;53.178;22.058;2022-12-07T12:35:36;3.20;99.90
28247;DHT22;34504;53.178;22.058;2022-12-07T12:38:32;3.20;99.90
28247;DHT22;34504;53.178;22.058;2022-12-07T12:41:03;3.20;99.90
28247;DHT22;34504;53.178;22.058;2022-12-07T12:43:49;3.20;99.90
28247;DHT22;34504;53.178;22.058;2022-12-07T12:55:14;3.10;99.90
28247;DHT22;34504;53.178;22.058;2022-12-07T13:03:56;3.10;99.90
28247;DHT22;34504;53.178;22.058;2022-12-07T13:08:58;3.10;99.90
28247;DHT22;34504;53.178;22.058;2022-12-07T13:11:36;3.10;99.90
28247;DHT22;34504;53.178;22.058;2022-12-07T13:14:37;3.10;99.90
28247;DHT22;34504;53.178;22.058;2022-12-07T13:17:11;3.10;99.90
28247;DHT22;34504;53.178;22.058;2022-12-07T13:28:02;3.10;99.90
28247;DHT22;34504;53.178;22.058;2022-12-07T13:30:31;3.10;99.90
28247;DHT22;34504;53.178;22.058;2022-12-07T13:32:59;3.10;99.90
28247;DHT22;34504;53.178;22.058;2022-12-07T13:38:02;3.10;99.90
28247;DHT22;34504;53.178;22.058;2022-12-07T13:40:33;3.10;99.90
28247;DHT22;34504;53.178;22.058;2022-12-07T13:43:03;3.00;99.90
28247;DHT22;34504;53.178;22.058;2022-12-07T13:45:33;3.10;99.90
28247;DHT22;34504;53.178;22.058;2022-12-07T13:48:33;3.10;99.90
28247;DHT22;34504;53.178;22.058;2022-12-07T13:51:19;3.10;99.90
28247;DHT22;34504;53.178;22.058;2022-12-07T13:53:59;3.00;99.90
28247;DHT22;34504;53.178;22.058;2022-12-07T13:56:31;3.00;99.90
28247;DHT22;34504;53.178;22.058;2022-12-07T13:59:00;3.00;99.90
28247;DHT22;34504;53.178;22.058;2022-12-07T14:01:31;3.00;99.90
28247;DHT22;34504;53.178;22.058;2022-12-07T14:06:54;3.00;99.90
28247;DHT22;34504;53.178;22.058;2022-12-07T14:09:25;3.00;99.90
28247;DHT22;34504;53.178;22.058;2022-12-07T14:11:55;3.00;99.90
28247;DHT22;34504;53.178;22.058;2022-12-07T14:14:37;3.00;99.90
28247;DHT22;34504;53.178;22.058;2022-12-07T14:17:20;3.00;99.90
28247;DHT22;34504;53.178;22.058;2022-12-07T14:19:51;3.00;99.90
28247;DHT22;34504;53.178;22.058;2022-12-07T14:27:50;2.90;99.90
28247;DHT22;34504;53.178;22.058;2022-12-07T14:30:20;2.90;99.90
28247;DHT22;34504;53.178;22.058;2022-12-07T14:32:53;2.90;99.90
28247;DHT22;34504;53.178;22.058;2022-12-07T14:35:21;2.90;99.90
28247;DHT22;34504;53.178;22.058;2022-12-07T14:37:50;2.90;99.90
28247;DHT22;34504;53.178;22.058;2022-12-07T14:40:32;2.80;99.90
28247;DHT22;34504;53.178;22.058;2022-12-07T14:43:03;2.90;99.90
28247;DHT22;34504;53.178;22.058;2022-12-07T14:45:32;2.90;99.90
28247;DHT22;34504;53.178;22.058;2022-12-07T14:48:00;2.90;99.90
28247;DHT22;34504;53.178;22.058;2022-12-07T14:50:51;2.80;99.90
28247;DHT22;34504;53.178;22.058;2022-12-07T14:53:46;2.80;99.90
28247;DHT22;34504;53.178;22.058;2022-12-07T14:56:26;2.80;99.90
28247;DHT22;34504;53.178;22.058;2022-12-07T14:58:55;2.90;99.90
28247;DHT22;34504;53.178;22.058;2022-12-07T15:01:23;2.90;99.90
28247;DHT22;34504;53.178;22.058;2022-12-07T15:03:51;2.90;99.90
28247;DHT22;34504;53.178;22.058;2022-12-07T15:06:19;2.90;99.90
28247;DHT22;34504;53.178;22.058;2022-12-07T15:08:51;2.90;99.90
28247;DHT22;34504;53.178;22.058;2022-12-07T15:11:19;2.90;99.90
28247;DHT22;34504;53.178;22.058;2022-12-07T15:13:47;2.90;99.90
28247;DHT22;34504;53.178;22.058;2022-12-07T15:16:34;2.90;99.90
28247;DHT22;34504;53.178;22.058;2022-12-07T15:19:26;2.90;99.90
28247;DHT22;34504;53.178;22.058;2022-12-07T15:21:57;2.90;99.90
28247;DHT22;34504;53.178;22.058;2022-12-07T15:24:26;3.00;99.90
28247;DHT22;34504;53.178;22.058;2022-12-07T15:26:54;3.00;99.90
28247;DHT22;34504;53.178;22.058;2022-12-07T15:29:22;2.90;99.90
28247;DHT22;34504;53.178;22.058;2022-12-07T15:31:58;3.00;99.90
28247;DHT22;34504;53.178;22.058;2022-12-07T15:34:37;2.90;99.90
28247;DHT22;34504;53.178;22.058;2022-12-07T15:37:07;3.00;99.90
28247;DHT22;34504;53.178;22.058;2022-12-07T15:39:37;3.00;99.90
28247;DHT22;34504;53.178;22.058;2022-12-07T15:42:05;3.00;99.90
28247;DHT22;34504;53.178;22.058;2022-12-07T15:44:33;3.00;99.90
28247;DHT22;34504;53.178;22.058;2022-12-07T15:47:19;3.00;99.90
28247;DHT22;34504;53.178;22.058;2022-12-07T15:49:48;3.10;99.90
28247;DHT22;34504;53.178;22.058;2022-12-07T15:52:17;3.10;99.90
28247;DHT22;34504;53.178;22.058;2022-12-07T15:54:47;3.10;99.90
28247;DHT22;34504;53.178;22.058;2022-12-07T15:57:15;3.10;99.90
28247;DHT22;34504;53.178;22.058;2022-12-07T15:59:50;3.10;99.90
28247;DHT22;34504;53.178;22.058;2022-12-07T16:02:18;3.10;99.90
28247;DHT22;34504;53.178;22.058;2022-12-07T16:04:46;3.20;99.90
28247;DHT22;34504;53.178;22.058;2022-12-07T16:07:14;3.20;99.90
28247;DHT22;34504;53.178;22.058;2022-12-07T16:09:44;3.20;99.90
28247;DHT22;34504;53.178;22.058;2022-12-07T16:12:13;3.20;99.90
28247;DHT22;34504;53.178;22.058;2022-12-07T16:14:45;3.10;99.90
28247;DHT22;34504;53.178;22.058;2022-12-07T16:17:13;3.10;99.90
28247;DHT22;34504;53.178;22.058;2022-12-07T16:19:41;3.20;99.90
28247;DHT22;34504;53.178;22.058;2022-12-07T16:22:09;3.10;99.90
28247;DHT22;34504;53.178;22.058;2022-12-07T16:24:37;3.10;99.90
28247;DHT22;34504;53.178;22.058;2022-12-07T16:27:05;3.10;99.90
28247;DHT22;34504;53.178;22.058;2022-12-07T16:29:33;3.20;99.90
28247;DHT22;34504;53.178;22.058;2022-12-07T16:32:01;3.20;99.90
28247;DHT22;34504;53.178;22.058;2022-12-07T16:34:29;3.20;99.90
28247;DHT22;34504;53.178;22.058;2022-12-07T16:36:57;3.20;99.90
28247;DHT22;34504;53.178;22.058;2022-12-07T16:39:32;3.20;99.90
28247;DHT22;34504;53.178;22.058;2022-12-07T16:42:01;3.20;99.90
28247;DHT22;34504;53.178;22.058;2022-12-07T16:44:29;3.20;99.90
28247;DHT22;34504;53.178;22.058;2022-12-07T16:46:59;3.20;99.90
28247;DHT22;34504;53.178;22.058;2022-12-07T16:49:29;3.20;99.90
28247;DHT22;34504;53.178;22.058;2022-12-07T16:52:06;3.20;99.90
28247;DHT22;34504;53.178;22.058;2022-12-07T16:54:49;3.20;99.90
28247;DHT22;34504;53.178;22.058;2022-12-07T16:57:18;3.10;99.90
28247;DHT22;34504;53.178;22.058;2022-12-07T16:59:51;3.20;99.90
28247;DHT22;34504;53.178;22.058;2022-12-07T17:02:20;3.20;99.90
28247;DHT22;34504;53.178;22.058;2022-12-07T17:04:48;3.20;99.90
28247;DHT22;34504;53.178;22.058;2022-12-07T17:07:17;3.10;99.90
28247;DHT22;34504;53.178;22.058;2022-12-07T17:09:45;3.20;99.90
28247;DHT22;34504;53.178;22.058;2022-12-07T17:12:13;3.10;99.90
28247;DHT22;34504;53.178;22.058;2022-12-07T17:14:41;3.10;99.90
28247;DHT22;34504;53.178;22.058;2022-12-07T17:17:29;3.10;99.90
28247;DHT22;34504;53.178;22.058;2022-12-07T17:19:57;3.10;99.90
28247;DHT22;34504;53.178;22.058;2022-12-07T17:22:25;3.10;99.90
28247;DHT22;34504;53.178;22.058;2022-12-07T17:24:53;3.10;99.90
28247;DHT22;34504;53.178;22.058;2022-12-07T17:27:21;3.10;99.90
28247;DHT22;34504;53.178;22.058;2022-12-07T17:29:50;3.10;99.90
28247;DHT22;34504;53.178;22.058;2022-12-07T17:32:18;3.10;99.90
28247;DHT22;34504;53.178;22.058;2022-12-07T17:34:46;3.10;99.90
28247;DHT22;34504;53.178;22.058;2022-12-07T17:37:14;3.10;99.90
28247;DHT22;34504;53.178;22.058;2022-12-07T17:39:42;3.00;99.90
28247;DHT22;34504;53.178;22.058;2022-12-07T17:42:12;3.00;99.90
28247;DHT22;34504;53.178;22.058;2022-12-07T17:44:59;3.00;99.90
28247;DHT22;34504;53.178;22.058;2022-12-07T17:47:28;3.00;99.90
28247;DHT22;34504;53.178;22.058;2022-12-07T17:49:56;3.00;99.90
28247;DHT22;34504;53.178;22.058;2022-12-07T17:52:33;3.00;99.90
28247;DHT22;34504;53.178;22.058;2022-12-07T17:55:20;3.00;99.90
28247;DHT22;34504;53.178;22.058;2022-12-07T17:57:48;3.10;99.90
28247;DHT22;34504;53.178;22.058;2022-12-07T18:00:17;3.10;99.90
28247;DHT22;34504;53.178;22.058;2022-12-07T18:02:46;3.00;99.90